createdAt,value
2023-05-06T00:00:56.322Z,95033.00
2023-05-06T00:01:56.327Z,95031.00
2023-05-06T00:02:56.384Z,95029.00
2023-05-06T00:03:56.591Z,95029.00
2023-05-06T00:04:56.600Z,95027.00
2023-05-06T00:05:56.389Z,95025.00
2023-05-06T00:06:56.396Z,95025.00
2023-05-06T00:07:56.426Z,95023.00
2023-05-06T00:08:56.430Z,95023.00
2023-05-06T00:09:56.424Z,95023.00
2023-05-06T00:10:56.430Z,95025.00
2023-05-06T00:11:56.436Z,95025.00
2023-05-06T00:12:56.540Z,95025.00
2023-05-06T00:13:56.462Z,95025.00
2023-05-06T00:14:56.512Z,95023.00
2023-05-06T00:15:56.653Z,95023.00
2023-05-06T00:16:56.556Z,95021.00
2023-05-06T00:17:56.653Z,95023.00
2023-05-06T00:18:56.652Z,95019.00
2023-05-06T00:19:56.748Z,95021.00
2023-05-06T00:20:56.673Z,95021.00
2023-05-06T00:21:56.668Z,95019.00
2023-05-06T00:22:56.711Z,95017.00
2023-05-06T00:23:56.705Z,95019.00
2023-05-06T00:24:56.755Z,95015.00
2023-05-06T00:25:56.738Z,95017.00
2023-05-06T00:26:56.743Z,95015.00
2023-05-06T00:27:56.717Z,95015.00
2023-05-06T00:28:56.761Z,95015.00
2023-05-06T00:29:56.765Z,95013.00
2023-05-06T00:30:56.761Z,95013.00
2023-05-06T00:31:56.802Z,95013.00
2023-05-06T00:32:56.848Z,95011.00
2023-05-06T00:33:56.862Z,95009.00
2023-05-06T00:34:56.853Z,95007.00
2023-05-06T00:35:56.908Z,95009.00
2023-05-06T00:36:56.887Z,95009.00
2023-05-06T00:37:56.891Z,95009.00
2023-05-06T00:38:56.926Z,95007.00
2023-05-06T00:39:56.922Z,95003.00
2023-05-06T00:40:57.023Z,95003.00
2023-05-06T00:41:56.994Z,95001.00
2023-05-06T00:42:56.995Z,95001.00
2023-05-06T00:43:57.023Z,95001.00
2023-05-06T00:44:57.086Z,95001.00
2023-05-06T00:45:57.126Z,95001.00
2023-05-06T00:46:57.104Z,94999.00
2023-05-06T00:47:57.113Z,95001.00
2023-05-06T00:48:57.080Z,94997.00
2023-05-06T00:49:57.128Z,94997.00
2023-05-06T00:50:57.170Z,94997.00
2023-05-06T00:51:57.180Z,94997.00
2023-05-06T00:52:58.144Z,94997.00
2023-05-06T00:53:57.201Z,94996.00
2023-05-06T00:54:57.242Z,94994.00
2023-05-06T00:55:57.242Z,94994.00
2023-05-06T00:56:57.258Z,94994.00
2023-05-06T00:57:57.261Z,94992.00
2023-05-06T00:58:57.277Z,94994.00
2023-05-06T00:59:57.345Z,94992.00
2023-05-06T01:00:57.382Z,94992.00
2023-05-06T01:01:57.369Z,94990.00
2023-05-06T01:02:57.508Z,94990.00
2023-05-06T01:03:57.848Z,94986.00
2023-05-06T01:04:57.450Z,94992.00
2023-05-06T01:05:57.473Z,94990.00
2023-05-06T01:06:57.439Z,94988.00
2023-05-06T01:07:57.487Z,94986.00
2023-05-06T01:08:57.528Z,94984.00
2023-05-06T01:09:57.520Z,94982.00
2023-05-06T01:10:57.626Z,94982.00
2023-05-06T01:11:57.601Z,94982.00
2023-05-06T01:12:57.685Z,94980.00
2023-05-06T01:13:57.634Z,94980.00
2023-05-06T01:14:57.630Z,94980.00
2023-05-06T01:15:57.669Z,94980.00
2023-05-06T01:16:57.702Z,94982.00
2023-05-06T01:17:57.675Z,94984.00
2023-05-06T01:18:57.724Z,94978.00
2023-05-06T01:19:57.729Z,94982.00
2023-05-06T01:20:57.786Z,94984.00
2023-05-06T01:21:57.823Z,94986.00
2023-05-06T01:22:57.847Z,94986.00
2023-05-06T01:23:58.418Z,94988.00
2023-05-06T01:24:57.874Z,94988.00
2023-05-06T01:25:57.874Z,94988.00
2023-05-06T01:26:57.902Z,94988.00
2023-05-06T01:27:57.875Z,94986.00
2023-05-06T01:28:57.864Z,94986.00
2023-05-06T01:29:57.933Z,94986.00
2023-05-06T01:30:58.018Z,94984.00
2023-05-06T01:31:57.932Z,94982.00
2023-05-06T01:32:57.992Z,94984.00
2023-05-06T01:33:57.936Z,94984.00
2023-05-06T01:34:57.985Z,94984.00
2023-05-06T01:35:57.995Z,94984.00
2023-05-06T01:36:58.054Z,94984.00
2023-05-06T01:37:58.036Z,94984.00
2023-05-06T01:38:58.025Z,94988.00
2023-05-06T01:39:58.054Z,94988.00
2023-05-06T01:40:58.090Z,94984.00
2023-05-06T01:41:58.129Z,94984.00
2023-05-06T01:42:58.132Z,94988.00
2023-05-06T01:43:58.149Z,94990.00
2023-05-06T01:44:58.178Z,94990.00
2023-05-06T01:45:58.232Z,94988.00
2023-05-06T01:46:58.216Z,94988.00
2023-05-06T01:47:58.278Z,94988.00
2023-05-06T01:48:58.247Z,94988.00
2023-05-06T01:49:58.263Z,94988.00
2023-05-06T01:50:58.293Z,94988.00
2023-05-06T01:51:58.329Z,94988.00
2023-05-06T01:52:58.365Z,94986.00
2023-05-06T01:53:58.425Z,94988.00
2023-05-06T01:54:58.490Z,94986.00
2023-05-06T01:55:58.483Z,94988.00
2023-05-06T01:56:58.534Z,94988.00
2023-05-06T01:57:58.622Z,94988.00
2023-05-06T01:58:59.505Z,94990.00
2023-05-06T01:59:58.625Z,94990.00
2023-05-06T02:00:58.672Z,94988.00
2023-05-06T02:01:58.698Z,94992.00
2023-05-06T02:02:58.714Z,94986.00
2023-05-06T02:03:58.871Z,94988.00
2023-05-06T02:04:58.734Z,94988.00
2023-05-06T02:05:58.732Z,94988.00
2023-05-06T02:06:58.772Z,94988.00
2023-05-06T02:07:58.820Z,94986.00
2023-05-06T02:08:58.838Z,94988.00
2023-05-06T02:09:58.836Z,94988.00
2023-05-06T02:10:58.934Z,94988.00
2023-05-06T02:11:58.945Z,94988.00
2023-05-06T02:12:58.949Z,94986.00
2023-05-06T02:13:58.958Z,94986.00
2023-05-06T02:14:58.974Z,94984.00
2023-05-06T02:15:59.055Z,94984.00
2023-05-06T02:16:58.975Z,94984.00
2023-05-06T02:17:59.085Z,94980.00
2023-05-06T02:18:59.018Z,94980.00
2023-05-06T02:19:59.067Z,94980.00
2023-05-06T02:20:59.143Z,94980.00
2023-05-06T02:21:59.225Z,94980.00
2023-05-06T02:22:59.238Z,94980.00
2023-05-06T02:23:59.272Z,94982.00
2023-05-06T02:24:59.276Z,94982.00
2023-05-06T02:25:59.307Z,94980.00
2023-05-06T02:26:59.304Z,94980.00
2023-05-06T02:27:59.414Z,94980.00
2023-05-06T02:28:59.694Z,94980.00
2023-05-06T02:29:59.383Z,94980.00
2023-05-06T02:30:59.449Z,94982.00
2023-05-06T02:31:59.441Z,94980.00
2023-05-06T02:32:59.566Z,94982.00
2023-05-06T02:33:59.490Z,94982.00
2023-05-06T02:34:59.521Z,94980.00
2023-05-06T02:35:59.521Z,94974.00
2023-05-06T02:36:59.628Z,94980.00
2023-05-06T02:37:59.649Z,94976.00
2023-05-06T02:38:59.620Z,94970.00
2023-05-06T02:39:59.653Z,94970.00
2023-05-06T02:40:59.693Z,94968.00
2023-05-06T02:41:59.694Z,94968.00
2023-05-06T02:42:59.756Z,94964.00
2023-05-06T02:43:59.751Z,94966.00
2023-05-06T02:44:59.792Z,94966.00
2023-05-06T02:45:59.854Z,94968.00
2023-05-06T02:46:59.832Z,94966.00
2023-05-06T02:47:59.908Z,94968.00
2023-05-06T02:48:59.920Z,94968.00
2023-05-06T02:49:59.885Z,94968.00
2023-05-06T02:50:59.940Z,94968.00
2023-05-06T02:51:59.962Z,94970.00
2023-05-06T02:52:59.988Z,94970.00
2023-05-06T02:54:00.058Z,94970.00
2023-05-06T02:55:00.059Z,94968.00
2023-05-06T02:56:00.148Z,94968.00
2023-05-06T02:57:00.141Z,94968.00
2023-05-06T02:58:00.190Z,94968.00
2023-05-06T02:59:00.223Z,94968.00
2023-05-06T03:00:00.355Z,94964.00
2023-05-06T03:01:00.304Z,94966.00
2023-05-06T03:02:00.350Z,94966.00
2023-05-06T03:03:00.380Z,94964.00
2023-05-06T03:04:00.452Z,94964.00
2023-05-06T03:05:00.471Z,94966.00
2023-05-06T03:06:00.519Z,94966.00
2023-05-06T03:07:00.557Z,94966.00
2023-05-06T03:08:00.599Z,94968.00
2023-05-06T03:09:00.664Z,94966.00
2023-05-06T03:10:00.672Z,94966.00
2023-05-06T03:11:00.727Z,94966.00
2023-05-06T03:12:00.795Z,94968.00
2023-05-06T03:13:00.821Z,94968.00
2023-05-06T03:14:00.839Z,94964.00
2023-05-06T03:15:00.862Z,94966.00
2023-05-06T03:16:00.917Z,94966.00
2023-05-06T03:17:00.890Z,94964.00
2023-05-06T03:18:00.997Z,94966.00
2023-05-06T03:19:00.939Z,94966.00
2023-05-06T03:20:00.944Z,94966.00
2023-05-06T03:21:01.021Z,94968.00
2023-05-06T03:22:01.004Z,94968.00
2023-05-06T03:23:01.047Z,94968.00
2023-05-06T03:24:01.054Z,94968.00
2023-05-06T03:25:01.115Z,94966.00
2023-05-06T03:26:01.081Z,94966.00
2023-05-06T03:27:01.107Z,94966.00
2023-05-06T03:28:01.150Z,94964.00
2023-05-06T03:29:01.181Z,94962.00
2023-05-06T03:30:01.229Z,94960.00
2023-05-06T03:31:01.202Z,94960.00
2023-05-06T03:32:01.315Z,94960.00
2023-05-06T03:33:01.322Z,94962.00
2023-05-06T03:34:01.291Z,94960.00
2023-05-06T03:35:01.370Z,94964.00
2023-05-06T03:36:02.171Z,94960.00
2023-05-06T03:37:01.370Z,94962.00
2023-05-06T03:38:01.434Z,94960.00
2023-05-06T03:39:01.449Z,94958.00
2023-05-06T03:40:01.482Z,94956.00
2023-05-06T03:41:01.468Z,94954.00
2023-05-06T03:42:02.231Z,94952.00
2023-05-06T03:43:01.518Z,94956.00
2023-05-06T03:44:01.572Z,94954.00
2023-05-06T03:45:01.599Z,94954.00
2023-05-06T03:46:01.617Z,94954.00
2023-05-06T03:47:01.616Z,94954.00
2023-05-06T03:48:01.813Z,94956.00
2023-05-06T03:49:01.694Z,94956.00
2023-05-06T03:50:01.743Z,94958.00
2023-05-06T03:51:01.747Z,94958.00
2023-05-06T03:52:01.753Z,94960.00
2023-05-06T03:53:01.802Z,94960.00
2023-05-06T03:54:01.831Z,94960.00
2023-05-06T03:55:01.842Z,94964.00
2023-05-06T03:56:01.886Z,94964.00
2023-05-06T03:57:01.888Z,94962.00
2023-05-06T03:58:01.992Z,94962.00
2023-05-06T03:59:02.029Z,94962.00
2023-05-06T04:00:02.087Z,94960.00
2023-05-06T04:01:02.103Z,94962.00
2023-05-06T04:02:02.242Z,94962.00
2023-05-06T04:03:02.187Z,94964.00
2023-05-06T04:04:02.359Z,94968.00
2023-05-06T04:05:02.167Z,94966.00
2023-05-06T04:06:02.227Z,94968.00
2023-05-06T04:07:02.240Z,94970.00
2023-05-06T04:08:02.256Z,94972.00
2023-05-06T04:09:02.306Z,94976.00
2023-05-06T04:10:02.293Z,94978.00
2023-05-06T04:11:02.367Z,94982.00
2023-05-06T04:12:02.366Z,94982.00
2023-05-06T04:13:02.495Z,94988.00
2023-05-06T04:14:02.452Z,94990.00
2023-05-06T04:15:02.548Z,94992.00
2023-05-06T04:16:02.651Z,94992.00
2023-05-06T04:17:02.576Z,94996.00
2023-05-06T04:18:02.670Z,94997.00
2023-05-06T04:19:04.396Z,95003.00
2023-05-06T04:20:02.753Z,95005.00
2023-05-06T04:21:02.640Z,95007.00
2023-05-06T04:22:02.618Z,95009.00
2023-05-06T04:23:02.678Z,95011.00
2023-05-06T04:24:02.680Z,95007.00
2023-05-06T04:25:02.620Z,95007.00
2023-05-06T04:26:02.620Z,95005.00
2023-05-06T04:27:02.660Z,95003.00
2023-05-06T04:28:02.645Z,95005.00
2023-05-06T04:29:02.608Z,94999.00
2023-05-06T04:30:02.616Z,95003.00
2023-05-06T04:31:02.532Z,94999.00
2023-05-06T04:32:02.624Z,94999.00
2023-05-06T04:33:02.581Z,94996.00
2023-05-06T04:34:02.586Z,94996.00
2023-05-06T04:35:02.546Z,94992.00
2023-05-06T04:36:02.519Z,94990.00
2023-05-06T04:37:02.578Z,94996.00
2023-05-06T04:38:02.571Z,94992.00
2023-05-06T04:39:02.529Z,94997.00
2023-05-06T04:40:02.529Z,94997.00
2023-05-06T04:41:02.517Z,94997.00
2023-05-06T04:42:02.534Z,94999.00
2023-05-06T04:43:02.490Z,94999.00
2023-05-06T04:44:02.503Z,94997.00
2023-05-06T04:45:02.475Z,94997.00
2023-05-06T04:46:02.492Z,94996.00
2023-05-06T04:47:02.464Z,94999.00
2023-05-06T04:48:02.522Z,94999.00
2023-05-06T04:49:02.429Z,95003.00
2023-05-06T04:50:02.445Z,95001.00
2023-05-06T04:51:02.455Z,95003.00
2023-05-06T04:52:02.524Z,95003.00
2023-05-06T04:53:02.473Z,94999.00
2023-05-06T04:54:02.493Z,94999.00
2023-05-06T04:55:02.404Z,94999.00
2023-05-06T04:56:02.474Z,95001.00
2023-05-06T04:57:02.421Z,95001.00
2023-05-06T04:58:02.386Z,95003.00
2023-05-06T04:59:02.394Z,95005.00
2023-05-06T05:00:02.443Z,95005.00
2023-05-06T05:01:02.436Z,95005.00
2023-05-06T05:02:02.592Z,95001.00
2023-05-06T05:03:02.629Z,95003.00
2023-05-06T05:04:02.629Z,95007.00
2023-05-06T05:05:02.721Z,95007.00
2023-05-06T05:06:02.724Z,95007.00
2023-05-06T05:07:02.741Z,95007.00
2023-05-06T05:08:02.832Z,95005.00
2023-05-06T05:09:02.821Z,95007.00
2023-05-06T05:10:02.896Z,95009.00
2023-05-06T05:11:02.899Z,95011.00
2023-05-06T05:12:02.955Z,95011.00
2023-05-06T05:13:03.043Z,95011.00
2023-05-06T05:14:03.137Z,95009.00
2023-05-06T05:15:03.132Z,95007.00
2023-05-06T05:16:03.116Z,95005.00
2023-05-06T05:17:03.230Z,95007.00
2023-05-06T05:18:03.225Z,95005.00
2023-05-06T05:19:04.153Z,95001.00
2023-05-06T05:20:03.224Z,95005.00
2023-05-06T05:21:03.254Z,95007.00
2023-05-06T05:22:03.276Z,95007.00
2023-05-06T05:23:03.297Z,95013.00
2023-05-06T05:24:03.297Z,95011.00
2023-05-06T05:25:04.238Z,95017.00
2023-05-06T05:26:03.344Z,95017.00
2023-05-06T05:27:03.421Z,95015.00
2023-05-06T05:28:03.472Z,95017.00
2023-05-06T05:29:03.504Z,95019.00
2023-05-06T05:30:03.545Z,95017.00
2023-05-06T05:31:03.579Z,95015.00
2023-05-06T05:32:03.601Z,95013.00
2023-05-06T05:33:03.746Z,95013.00
2023-05-06T05:34:03.664Z,95015.00
2023-05-06T05:35:03.697Z,95015.00
2023-05-06T05:36:03.766Z,95017.00
2023-05-06T05:37:03.750Z,95017.00
2023-05-06T05:38:03.813Z,95015.00
2023-05-06T05:39:03.825Z,95011.00
2023-05-06T05:40:03.909Z,95013.00
2023-05-06T05:41:03.856Z,95013.00
2023-05-06T05:42:03.935Z,95017.00
2023-05-06T05:43:03.907Z,95015.00
2023-05-06T05:44:03.982Z,95013.00
2023-05-06T05:45:03.951Z,95015.00
2023-05-06T05:46:04.055Z,95015.00
2023-05-06T05:47:04.004Z,95013.00
2023-05-06T05:48:04.129Z,95009.00
2023-05-06T05:49:04.142Z,95007.00
2023-05-06T05:50:04.201Z,95003.00
2023-05-06T05:51:04.240Z,94999.00
2023-05-06T05:52:04.289Z,94997.00
2023-05-06T05:53:04.317Z,94996.00
2023-05-06T05:54:04.328Z,95005.00
2023-05-06T05:55:04.430Z,95011.00
2023-05-06T05:56:04.442Z,95011.00
2023-05-06T05:57:04.427Z,95009.00
2023-05-06T05:58:04.512Z,95003.00
2023-05-06T05:59:04.497Z,94997.00
2023-05-06T06:00:04.602Z,94999.00
2023-05-06T06:01:04.630Z,94996.00
2023-05-06T06:02:04.738Z,94997.00
2023-05-06T06:03:04.860Z,94999.00
2023-05-06T06:04:04.975Z,94996.00
2023-05-06T06:05:04.882Z,95001.00
2023-05-06T06:06:04.884Z,95001.00
2023-05-06T06:07:04.920Z,95005.00
2023-05-06T06:08:04.960Z,95011.00
2023-05-06T06:09:04.986Z,95011.00
2023-05-06T06:10:05.024Z,95011.00
2023-05-06T06:11:05.038Z,95011.00
2023-05-06T06:12:05.093Z,95007.00
2023-05-06T06:13:05.135Z,95009.00
2023-05-06T06:14:05.120Z,95009.00
2023-05-06T06:15:05.162Z,95009.00
2023-05-06T06:16:05.260Z,95009.00
2023-05-06T06:17:05.185Z,95011.00
2023-05-06T06:18:05.306Z,95013.00
2023-05-06T06:19:05.209Z,95013.00
2023-05-06T06:20:05.255Z,95015.00
2023-05-06T06:21:05.273Z,95013.00
2023-05-06T06:22:05.358Z,95015.00
2023-05-06T06:23:05.339Z,95015.00
2023-05-06T06:24:05.355Z,95015.00
2023-05-06T06:25:05.366Z,95015.00
2023-05-06T06:26:05.476Z,95017.00
2023-05-06T06:27:05.410Z,95017.00
2023-05-06T06:28:05.446Z,95015.00
2023-05-06T06:29:05.461Z,95013.00
2023-05-06T06:30:05.485Z,95011.00
2023-05-06T06:31:05.500Z,95007.00
2023-05-06T06:32:05.618Z,95003.00
2023-05-06T06:33:05.676Z,95003.00
2023-05-06T06:34:05.560Z,95005.00
2023-05-06T06:35:05.602Z,94997.00
2023-05-06T06:36:05.648Z,94997.00
2023-05-06T06:37:07.861Z,94999.00
2023-05-06T06:38:05.650Z,95001.00
2023-05-06T06:39:05.660Z,94999.00
2023-05-06T06:40:05.671Z,95001.00
2023-05-06T06:41:05.716Z,94999.00
2023-05-06T06:42:05.709Z,94994.00
2023-05-06T06:43:05.774Z,94997.00
2023-05-06T06:44:07.000Z,94999.00
2023-05-06T06:45:05.850Z,94999.00
2023-05-06T06:46:05.884Z,94997.00
2023-05-06T06:47:05.810Z,94997.00
2023-05-06T06:48:05.865Z,95001.00
2023-05-06T06:49:05.867Z,95005.00
2023-05-06T06:50:05.913Z,95001.00
2023-05-06T06:51:05.950Z,95003.00
2023-05-06T06:52:05.991Z,95003.00
2023-05-06T06:53:06.493Z,95003.00
2023-05-06T06:54:06.031Z,94999.00
2023-05-06T06:55:06.052Z,95001.00
2023-05-06T06:56:06.060Z,94999.00
2023-05-06T06:57:06.071Z,94999.00
2023-05-06T06:58:06.105Z,95001.00
2023-05-06T06:59:06.156Z,94999.00
2023-05-06T07:00:06.170Z,94999.00
2023-05-06T07:01:06.226Z,94999.00
2023-05-06T07:02:06.170Z,95001.00
2023-05-06T07:03:06.299Z,95001.00
2023-05-06T07:04:07.227Z,94997.00
2023-05-06T07:05:06.214Z,94997.00
2023-05-06T07:06:06.265Z,94997.00
2023-05-06T07:07:06.233Z,94994.00
2023-05-06T07:08:06.291Z,94992.00
2023-05-06T07:09:06.333Z,94994.00
2023-05-06T07:10:06.351Z,94990.00
2023-05-06T07:11:06.370Z,94990.00
2023-05-06T07:12:06.341Z,94988.00
2023-05-06T07:13:06.525Z,94990.00
2023-05-06T07:14:06.443Z,94990.00
2023-05-06T07:15:06.455Z,94990.00
2023-05-06T07:16:06.522Z,94990.00
2023-05-06T07:17:06.633Z,94990.00
2023-05-06T07:18:06.684Z,94988.00
2023-05-06T07:19:06.652Z,94986.00
2023-05-06T07:20:06.661Z,94986.00
2023-05-06T07:21:06.682Z,94984.00
2023-05-06T07:22:06.716Z,94986.00
2023-05-06T07:23:06.789Z,94984.00
2023-05-06T07:24:06.821Z,94986.00
2023-05-06T07:25:06.825Z,94984.00
2023-05-06T07:26:06.843Z,94982.00
2023-05-06T07:27:06.875Z,94984.00
2023-05-06T07:28:06.922Z,94980.00
2023-05-06T07:29:06.932Z,94982.00
2023-05-06T07:30:06.902Z,94982.00
2023-05-06T07:31:06.988Z,94982.00
2023-05-06T07:32:06.999Z,94984.00
2023-05-06T07:33:07.105Z,94980.00
2023-05-06T07:34:06.982Z,94982.00
2023-05-06T07:35:07.002Z,94984.00
2023-05-06T07:36:07.000Z,94980.00
2023-05-06T07:37:07.015Z,94978.00
2023-05-06T07:38:07.069Z,94980.00
2023-05-06T07:39:07.080Z,94980.00
2023-05-06T07:40:07.118Z,94982.00
2023-05-06T07:41:07.135Z,94980.00
2023-05-06T07:42:07.140Z,94978.00
2023-05-06T07:43:07.173Z,94978.00
2023-05-06T07:44:07.176Z,94974.00
2023-05-06T07:45:07.178Z,94974.00
2023-05-06T07:46:07.248Z,94970.00
2023-05-06T07:47:07.295Z,94974.00
2023-05-06T07:48:07.336Z,94972.00
2023-05-06T07:49:07.306Z,94974.00
2023-05-06T07:50:07.242Z,94976.00
2023-05-06T07:51:07.262Z,94976.00
2023-05-06T07:52:07.296Z,94974.00
2023-05-06T07:53:07.290Z,94972.00
2023-05-06T07:54:07.335Z,94970.00
2023-05-06T07:55:07.397Z,94970.00
2023-05-06T07:56:07.374Z,94968.00
2023-05-06T07:57:07.363Z,94970.00
2023-05-06T07:58:07.369Z,94968.00
2023-05-06T07:59:07.415Z,94970.00
2023-05-06T08:00:07.401Z,94968.00
2023-05-06T08:01:07.428Z,94968.00
2023-05-06T08:02:07.463Z,94964.00
2023-05-06T08:03:07.573Z,94966.00
2023-05-06T08:04:07.641Z,94964.00
2023-05-06T08:05:07.464Z,94966.00
2023-05-06T08:06:07.537Z,94964.00
2023-05-06T08:07:07.536Z,94968.00
2023-05-06T08:08:07.635Z,94966.00
2023-05-06T08:09:07.586Z,94966.00
2023-05-06T08:10:07.844Z,94966.00
2023-05-06T08:11:07.601Z,94964.00
2023-05-06T08:12:07.720Z,94964.00
2023-05-06T08:13:07.708Z,94964.00
2023-05-06T08:14:07.678Z,94964.00
2023-05-06T08:15:08.015Z,94964.00
2023-05-06T08:16:07.806Z,94968.00
2023-05-06T08:17:07.722Z,94968.00
2023-05-06T08:18:20.897Z,94974.00
2023-05-06T08:19:08.707Z,94976.00
2023-05-06T08:20:07.769Z,94976.00
2023-05-06T08:21:07.701Z,94972.00
2023-05-06T08:22:07.714Z,94972.00
2023-05-06T08:23:07.696Z,94976.00
2023-05-06T08:24:07.720Z,94974.00
2023-05-06T08:25:07.810Z,94978.00
2023-05-06T08:26:07.650Z,94976.00
2023-05-06T08:27:07.665Z,95013.00
2023-05-06T08:28:07.714Z,94976.00
2023-05-06T08:29:07.659Z,94974.00
2023-05-06T08:30:07.689Z,94976.00
2023-05-06T08:31:07.623Z,94978.00
2023-05-06T08:32:07.710Z,94976.00
2023-05-06T08:33:07.720Z,94978.00
2023-05-06T08:34:07.617Z,94976.00
2023-05-06T08:35:07.624Z,94978.00
2023-05-06T08:36:07.729Z,94976.00
2023-05-06T08:37:07.582Z,94978.00
2023-05-06T08:38:07.567Z,94980.00
2023-05-06T08:39:07.580Z,94978.00
2023-05-06T08:40:07.600Z,94976.00
2023-05-06T08:41:07.564Z,94978.00
2023-05-06T08:42:07.561Z,94980.00
2023-05-06T08:43:07.569Z,94982.00
2023-05-06T08:44:07.578Z,94982.00
2023-05-06T08:45:07.639Z,94982.00
2023-05-06T08:46:07.651Z,94986.00
2023-05-06T08:47:07.590Z,94984.00
2023-05-06T08:48:07.725Z,94984.00
2023-05-06T08:49:07.642Z,94986.00
2023-05-06T08:50:07.616Z,94986.00
2023-05-06T08:51:08.170Z,94984.00
2023-05-06T08:52:07.807Z,94982.00
2023-05-06T08:53:07.604Z,94982.00
2023-05-06T08:54:07.635Z,94982.00
2023-05-06T08:55:07.712Z,94982.00
2023-05-06T08:56:07.619Z,94982.00
2023-05-06T08:57:08.129Z,94982.00
2023-05-06T08:58:07.619Z,94986.00
2023-05-06T08:59:07.628Z,94984.00
2023-05-06T09:00:07.613Z,94986.00
2023-05-06T09:01:07.751Z,94984.00
2023-05-06T09:02:07.729Z,94984.00
2023-05-06T09:03:07.716Z,94986.00
2023-05-06T09:04:07.660Z,94986.00
2023-05-06T09:05:07.719Z,94988.00
2023-05-06T09:06:07.628Z,94992.00
2023-05-06T09:07:07.642Z,94992.00
2023-05-06T09:08:07.720Z,94992.00
2023-05-06T09:09:07.641Z,94994.00
2023-05-06T09:10:07.718Z,94994.00
2023-05-06T09:11:07.664Z,94996.00
2023-05-06T09:12:07.758Z,94994.00
2023-05-06T09:13:07.723Z,94996.00
2023-05-06T09:14:07.683Z,94996.00
2023-05-06T09:15:07.778Z,94992.00
2023-05-06T09:16:07.635Z,94992.00
2023-05-06T09:17:07.825Z,94994.00
2023-05-06T09:18:07.746Z,94994.00
2023-05-06T09:19:07.698Z,94996.00
2023-05-06T09:20:07.675Z,94994.00
2023-05-06T09:21:07.671Z,94990.00
2023-05-06T09:22:07.698Z,94986.00
2023-05-06T09:23:07.633Z,94986.00
2023-05-06T09:24:07.706Z,94986.00
2023-05-06T09:25:07.765Z,94980.00
2023-05-06T09:26:07.670Z,94984.00
2023-05-06T09:27:10.202Z,94982.00
2023-05-06T09:28:07.688Z,94984.00
2023-05-06T09:29:07.696Z,94984.00
2023-05-06T09:30:07.662Z,94980.00
2023-05-06T09:31:07.775Z,94984.00
2023-05-06T09:32:07.653Z,94980.00
2023-05-06T09:33:07.688Z,94978.00
2023-05-06T09:34:07.573Z,94978.00
2023-05-06T09:35:07.585Z,94980.00
2023-05-06T09:36:07.626Z,94980.00
2023-05-06T09:37:07.555Z,94978.00
2023-05-06T09:38:07.692Z,94980.00
2023-05-06T09:39:07.594Z,94980.00
2023-05-06T09:40:07.625Z,94978.00
2023-05-06T09:41:07.525Z,94980.00
2023-05-06T09:42:07.561Z,94980.00
2023-05-06T09:43:07.528Z,94980.00
2023-05-06T09:44:07.589Z,94980.00
2023-05-06T09:45:07.583Z,94980.00
2023-05-06T09:46:07.557Z,94980.00
2023-05-06T09:47:07.565Z,94980.00
2023-05-06T09:48:07.546Z,94976.00
2023-05-06T09:49:07.472Z,94980.00
2023-05-06T09:50:07.529Z,94980.00
2023-05-06T09:51:07.528Z,94978.00
2023-05-06T09:52:07.489Z,94978.00
2023-05-06T09:53:07.514Z,94980.00
2023-05-06T09:54:07.488Z,94980.00
2023-05-06T09:55:07.536Z,94978.00
2023-05-06T09:56:07.498Z,94978.00
2023-05-06T09:57:07.467Z,94978.00
2023-05-06T09:58:07.480Z,94980.00
2023-05-06T09:59:07.425Z,94978.00
2023-05-06T10:00:07.480Z,94978.00
2023-05-06T10:01:07.412Z,94976.00
2023-05-06T10:02:07.421Z,94976.00
2023-05-06T10:03:07.578Z,94974.00
2023-05-06T10:04:07.589Z,94978.00
2023-05-06T10:05:07.512Z,94976.00
2023-05-06T10:06:07.434Z,94974.00
2023-05-06T10:07:07.370Z,94974.00
2023-05-06T10:08:07.385Z,94972.00
2023-05-06T10:09:07.388Z,94968.00
2023-05-06T10:10:07.360Z,94966.00
2023-05-06T10:11:07.364Z,94964.00
2023-05-06T10:12:07.342Z,94964.00
2023-05-06T10:13:07.380Z,94962.00
2023-05-06T10:14:07.315Z,94960.00
2023-05-06T10:15:07.327Z,94962.00
2023-05-06T10:16:07.353Z,94962.00
2023-05-06T10:17:07.316Z,94960.00
2023-05-06T10:18:07.402Z,94958.00
2023-05-06T10:19:07.341Z,94954.00
2023-05-06T10:20:07.284Z,94952.00
2023-05-06T10:21:07.274Z,94950.00
2023-05-06T10:22:07.272Z,94952.00
2023-05-06T10:23:07.281Z,94947.00
2023-05-06T10:24:07.287Z,94952.00
2023-05-06T10:25:07.275Z,94950.00
2023-05-06T10:26:07.256Z,94952.00
2023-05-06T10:27:07.249Z,94949.00
2023-05-06T10:28:07.290Z,94950.00
2023-05-06T10:29:07.240Z,94947.00
2023-05-06T10:30:07.214Z,94945.00
2023-05-06T10:31:07.222Z,94945.00
2023-05-06T10:32:07.228Z,94939.00
2023-05-06T10:33:07.237Z,94941.00
2023-05-06T10:34:07.166Z,94939.00
2023-05-06T10:35:07.232Z,94943.00
2023-05-06T10:36:07.195Z,94941.00
2023-05-06T10:37:07.173Z,94941.00
2023-05-06T10:38:07.186Z,94943.00
2023-05-06T10:39:07.146Z,94943.00
2023-05-06T10:40:07.155Z,94939.00
2023-05-06T10:41:07.145Z,94937.00
2023-05-06T10:42:07.130Z,94937.00
2023-05-06T10:43:07.128Z,94933.00
2023-05-06T10:44:07.242Z,94931.00
2023-05-06T10:45:07.104Z,94931.00
2023-05-06T10:46:07.193Z,94929.00
2023-05-06T10:47:07.126Z,94931.00
2023-05-06T10:48:07.336Z,94931.00
2023-05-06T10:49:07.105Z,94929.00
2023-05-06T10:50:07.109Z,94929.00
2023-05-06T10:51:07.111Z,94925.00
2023-05-06T10:52:07.094Z,94923.00
2023-05-06T10:53:07.073Z,94923.00
2023-05-06T10:54:07.110Z,94919.00
2023-05-06T10:55:07.101Z,94921.00
2023-05-06T10:56:07.239Z,94919.00
2023-05-06T10:57:07.039Z,94921.00
2023-05-06T10:58:07.118Z,94919.00
2023-05-06T10:59:07.047Z,94917.00
2023-05-06T11:00:07.103Z,94917.00
2023-05-06T11:01:07.209Z,94915.00
2023-05-06T11:02:07.099Z,94915.00
2023-05-06T11:03:07.175Z,94915.00
2023-05-06T11:04:07.001Z,94915.00
2023-05-06T11:05:06.970Z,94913.00
2023-05-06T11:06:07.045Z,94913.00
2023-05-06T11:07:07.053Z,94904.00
2023-05-06T11:08:06.999Z,94902.00
2023-05-06T11:09:07.051Z,94904.00
2023-05-06T11:10:07.034Z,94902.00
2023-05-06T11:11:07.079Z,94900.00
2023-05-06T11:12:07.086Z,94896.00
2023-05-06T11:13:07.080Z,94902.00
2023-05-06T11:14:07.084Z,94900.00
2023-05-06T11:15:07.129Z,94898.00
2023-05-06T11:16:07.044Z,94900.00
2023-05-06T11:17:07.121Z,94898.00
2023-05-06T11:18:07.157Z,94896.00
2023-05-06T11:19:07.070Z,94898.00
2023-05-06T11:20:07.035Z,94896.00
2023-05-06T11:21:07.098Z,94896.00
2023-05-06T11:22:07.094Z,94896.00
2023-05-06T11:23:07.081Z,94894.00
2023-05-06T11:24:07.144Z,94896.00
2023-05-06T11:25:07.162Z,94896.00
2023-05-06T11:26:07.107Z,94896.00
2023-05-06T11:27:07.134Z,94896.00
2023-05-06T11:28:07.158Z,94898.00
2023-05-06T11:29:07.200Z,94900.00
2023-05-06T11:30:07.182Z,94898.00
2023-05-06T11:31:07.267Z,94898.00
2023-05-06T11:32:07.227Z,94898.00
2023-05-06T11:33:07.221Z,94898.00
2023-05-06T11:34:07.208Z,94898.00
2023-05-06T11:35:07.169Z,94898.00
2023-05-06T11:36:07.180Z,94898.00
2023-05-06T11:37:07.209Z,94896.00
2023-05-06T11:38:07.213Z,94898.00
2023-05-06T11:39:07.161Z,94896.00
2023-05-06T11:40:07.178Z,94896.00
2023-05-06T11:41:07.216Z,94896.00
2023-05-06T11:42:07.310Z,94898.00
2023-05-06T11:43:07.302Z,94898.00
2023-05-06T11:44:08.375Z,94896.00
2023-05-06T11:45:07.398Z,94894.00